Time;durP1;ratioP1;P1;durP2;ratioP2;P2;SDS_P1;SDS_P2;PMS_P1;PMS_P2;Temp;Humidity;BMP_temperature;BMP_pressure;BME280_temperature;BME280_humidity;BME280_pressure;Samples;Min_cycle;Max_cycle;Signal;HPM_P1;HPM_P2
2021/01/28 00:00:12;;;;;;;9.00;7.82;;;;;;;2.83;68.88;100304.31;687894;28;45125;-61
2021/01/28 00:00:34;;;;;;;8.57;7.63;;;;;;;2.84;68.87;100305.19;686323;28;113494;-60
2021/01/28 00:00:56;;;;;;;9.02;7.93;;;;;;;2.82;68.89;100297.31;688301;28;45319;-60
2021/01/28 00:01:17;;;;;;;8.75;7.82;;;;;;;2.80;69.06;100299.25;688546;28;46046;-60
2021/01/28 00:01:38;;;;;;;9.55;7.85;;;;;;;2.79;69.21;100300.25;689404;28;23534;-60
2021/01/28 00:01:59;;;;;;;8.80;7.90;;;;;;;2.79;69.26;100294.06;689740;28;21543;-60
2021/01/28 00:02:21;;;;;;;9.18;8.15;;;;;;;2.79;69.21;100304.72;690243;28;1129;-60
2021/01/28 00:02:42;;;;;;;9.05;7.90;;;;;;;2.78;69.32;100305.72;689583;28;21537;-59
2021/01/28 00:03:04;;;;;;;10.07;7.88;;;;;;;2.80;69.10;100304.59;689312;28;21559;-59
2021/01/28 00:03:26;;;;;;;11.02;7.80;;;;;;;2.81;69.28;100298.28;687800;28;69428;-60
2021/01/28 00:03:47;;;;;;;9.43;7.55;;;;;;;2.82;69.14;100313.31;689745;28;23688;-57
2021/01/28 00:04:08;;;;;;;9.07;8.15;;;;;;;2.81;69.00;100306.28;689729;28;23597;-61
2021/01/28 00:04:29;;;;;;;8.82;7.93;;;;;;;2.79;69.22;100302.91;690401;28;1008;-59
2021/01/28 00:04:50;;;;;;;8.73;7.57;;;;;;;2.79;69.36;100302.91;688874;28;47179;-56
2021/01/28 00:05:12;;;;;;;9.35;8.15;;;;;;;2.79;69.23;100302.06;689536;28;22349;-60
2021/01/28 00:05:36;;;;;;;9.20;7.90;;;;;;;2.77;69.48;100302.19;689628;28;21522;-59
2021/01/28 00:05:57;;;;;;;8.30;7.35;;;;;;;2.77;69.25;100310.19;687280;28;92248;-62
2021/01/28 00:06:18;;;;;;;9.05;7.95;;;;;;;2.78;69.51;100311.06;689698;28;23396;-61
2021/01/28 00:06:39;;;;;;;8.60;7.70;;;;;;;2.78;69.44;100306.56;689769;28;22566;-60
2021/01/28 00:07:00;;;;;;;9.10;7.65;;;;;;;2.78;69.38;100300.41;689738;28;22303;-61
2021/01/28 00:07:21;;;;;;;10.50;7.82;;;;;;;2.77;69.53;100306.69;689774;28;23480;-60
2021/01/28 00:07:43;;;;;;;9.90;8.05;;;;;;;2.79;69.35;100305.59;689731;28;21493;-60
2021/01/28 00:08:05;;;;;;;9.75;7.82;;;;;;;2.80;69.40;100301.91;689476;28;22474;-58
2021/01/28 00:08:29;;;;;;;8.65;7.75;;;;;;;2.79;69.41;100299.38;688832;28;35860;-60
2021/01/28 00:08:50;;;;;;;8.68;7.80;;;;;;;2.79;69.43;100302.06;689812;28;18520;-60
2021/01/28 00:09:11;;;;;;;9.20;8.30;;;;;;;2.78;69.46;100303.06;688786;28;46111;-61
2021/01/28 00:09:33;;;;;;;8.65;7.75;;;;;;;2.78;69.44;100306.56;689766;28;23484;-60
2021/01/28 00:09:54;;;;;;;8.68;7.78;;;;;;;2.78;69.40;100301.22;690043;28;15363;-59
2021/01/28 00:10:16;;;;;;;8.63;7.72;;;;;;;2.77;69.59;100309.38;689711;28;21541;-61
2021/01/28 00:10:38;;;;;;;8.98;7.75;;;;;;;2.77;69.54;100296.88;687750;28;69411;-60
2021/01/28 00:10:59;;;;;;;8.75;7.65;;;;;;;2.77;69.68;100301.38;689209;28;22406;-60
2021/01/28 00:11:20;;;;;;;9.00;7.68;;;;;;;2.75;69.68;100301.50;689637;28;23498;-61
2021/01/28 00:11:41;;;;;;;9.10;8.13;;;;;;;2.74;69.68;100294.47;689039;28;44380;-58
2021/01/28 00:12:03;;;;;;;9.40;7.80;;;;;;;2.74;69.85;100302.47;689791;28;21520;-61
2021/01/28 00:12:25;;;;;;;9.48;8.10;;;;;;;2.75;69.59;100298.00;688154;28;44472;-61
2021/01/28 00:12:46;;;;;;;8.98;7.60;;;;;;;2.75;69.68;100300.66;689476;28;22212;-58
2021/01/28 00:13:08;;;;;;;8.00;7.20;;;;;;;2.76;69.69;100302.34;689447;28;21567;-62
2021/01/28 00:13:30;;;;;;;9.10;7.93;;;;;;;2.77;69.51;100301.38;687927;28;69414;-60
2021/01/28 00:13:51;;;;;;;9.27;8.02;;;;;;;2.77;69.61;100302.19;689835;28;22402;-60
2021/01/28 00:14:12;;;;;;;10.25;8.00;;;;;;;2.77;69.50;100296.88;688993;28;43981;-59
2021/01/28 00:14:34;;;;;;;9.23;8.00;;;;;;;2.78;69.49;100295.88;689686;28;21502;-61
2021/01/28 00:14:55;;;;;;;10.98;8.20;;;;;;;2.77;69.58;100302.19;689285;28;23215;-61
2021/01/28 00:15:18;;;;;;;10.13;8.00;;;;;;;2.75;69.59;100295.34;689644;28;22394;-58
2021/01/28 00:15:41;;;;;;;9.00;7.77;;;;;;;2.76;69.48;100302.34;686549;28;92293;-60
2021/01/28 00:16:02;;;;;;;8.25;7.45;;;;;;;2.76;69.60;100305.88;687921;28;69503;-60
2021/01/28 00:16:23;;;;;;;8.80;7.90;;;;;;;2.76;69.59;100305.88;689373;28;23502;-60
2021/01/28 00:16:44;;;;;;;9.30;7.95;;;;;;;2.76;69.81;100295.19;689683;28;23410;-60
2021/01/28 00:17:07;;;;;;;9.23;7.85;;;;;;;2.75;69.34;100298.00;690172;28;914;-58
2021/01/28 00:17:30;;;;;;;9.07;7.53;;;;;;;2.74;69.77;100294.47;690210;28;1051;-60
2021/01/28 00:17:51;;;;;;;9.05;7.72;;;;;;;2.75;69.75;100292.66;688980;28;46332;-60
2021/01/28 00:18:14;;;;;;;10.38;8.13;;;;;;;2.75;69.64;100300.66;690236;28;839;-59
2021/01/28 00:18:39;;;;;;;9.80;8.13;;;;;;;2.75;69.69;100298.84;689097;28;37653;-60
2021/01/28 00:19:03;;;;;;;10.63;8.10;;;;;;;2.75;69.76;100298.00;689878;28;13359;-62
2021/01/28 00:19:24;;;;;;;10.23;8.25;;;;;;;2.73;69.77;100287.47;688742;28;45250;-58
2021/01/28 00:19:46;;;;;;;10.15;8.00;;;;;;;2.77;69.69;100288.03;690459;28;5730;-58
2021/01/28 00:20:12;;;;;;;8.70;7.70;;;;;;;2.81;69.67;100290.28;690264;28;880;-60
2021/01/28 00:20:41;;;;;;;10.50;7.97;;;;;;;2.80;69.55;100282.41;688284;28;60376;-60
2021/01/28 00:21:04;;;;;;;9.25;8.00;;;;;;;2.80;69.73;100290.41;689426;28;13500;-61
2021/01/28 00:21:25;;;;;;;9.20;8.10;;;;;;;2.80;69.66;100288.59;689021;28;42644;-61
2021/01/28 00:21:48;;;;;;;9.40;8.38;;;;;;;2.80;69.54;100298.41;690332;28;963;-60
2021/01/28 00:22:09;;;;;;;8.90;8.00;;;;;;;2.81;69.56;100287.63;689761;28;22569;-62
2021/01/28 00:22:30;;;;;;;9.00;8.10;;;;;;;2.81;69.50;100290.28;688782;28;22384;-61
2021/01/28 00:22:51;;;;;;;8.90;8.00;;;;;;;2.80;69.74;100293.91;688848;28;22361;-60
2021/01/28 00:23:14;;;;;;;9.32;8.00;;;;;;;2.78;69.59;100290.56;688853;28;44370;-62
2021/01/28 00:23:35;;;;;;;9.02;7.88;;;;;;;2.78;69.82;100284.41;688675;28;45940;-62
2021/01/28 00:23:56;;;;;;;9.52;8.23;;;;;;;2.77;70.12;100286.19;689422;28;23482;-61
2021/01/28 00:24:17;;;;;;;9.25;7.90;;;;;;;2.77;69.85;100288.03;688408;28;45256;-61
2021/01/28 00:24:39;;;;;;;9.18;7.78;;;;;;;2.76;70.07;100284.53;689764;28;22409;-58
2021/01/28 00:25:00;;;;;;;8.80;7.90;;;;;;;2.76;70.03;100284.53;689547;28;21531;-61
2021/01/28 00:25:22;;;;;;;8.80;7.80;;;;;;;2.77;69.90;100294.19;689476;28;23455;-63
2021/01/28 00:25:44;;;;;;;10.23;8.43;;;;;;;2.78;69.96;100287.06;687952;28;69458;-60
2021/01/28 00:26:05;;;;;;;9.02;8.13;;;;;;;2.77;69.87;100285.34;688732;28;44382;-61
2021/01/28 00:26:26;;;;;;;9.10;8.05;;;;;;;2.77;70.01;100283.53;688684;28;23453;-60
2021/01/28 00:26:48;;;;;;;9.27;8.07;;;;;;;2.76;69.98;100279.19;689774;28;22420;-61
2021/01/28 00:27:09;;;;;;;8.90;7.95;;;;;;;2.75;70.15;100279.34;688825;28;43054;-61
2021/01/28 00:27:30;;;;;;;9.35;8.30;;;;;;;2.75;70.07;100279.34;689682;28;22471;-58
2021/01/28 00:27:52;;;;;;;9.60;8.63;;;;;;;2.74;70.16;100278.47;689739;28;22213;-61
2021/01/28 00:28:18;;;;;;;9.20;8.23;;;;;;;2.74;70.15;100273.13;688802;28;46339;-61
2021/01/28 00:28:39;;;;;;;10.32;8.60;;;;;;;2.75;70.25;100282.00;685701;28;136145;-60
2021/01/28 00:29:00;;;;;;;9.40;8.40;;;;;;;2.74;70.14;100273.13;688985;28;45988;-60
2021/01/28 00:29:21;;;;;;;9.52;8.25;;;;;;;2.75;70.22;100274.00;689187;28;22476;-62
2021/01/28 00:29:43;;;;;;;9.45;8.18;;;;;;;2.74;70.04;100273.13;689699;28;22174;-59
2021/01/28 00:30:06;;;;;;;9.43;8.45;;;;;;;2.74;70.26;100273.13;688946;28;46381;-59
2021/01/28 00:30:30;;;;;;;9.15;8.15;;;;;;;2.73;70.17;100266.13;688326;28;57304;-59
2021/01/28 00:30:53;;;;;;;9.68;8.35;;;;;;;2.73;70.31;100267.94;687323;28;92216;-61
2021/01/28 00:31:14;;;;;;;10.13;8.63;;;;;;;2.73;70.37;100274.13;687476;28;68866;-59
2021/01/28 00:31:35;;;;;;;10.57;8.65;;;;;;;2.73;70.37;100270.59;689375;28;23467;-61
2021/01/28 00:31:56;;;;;;;9.10;8.10;;;;;;;2.71;70.38;100273.41;689816;28;21563;-61
2021/01/28 00:32:17;;;;;;;8.80;7.90;;;;;;;2.71;70.49;100268.06;689730;28;21531;-61
2021/01/28 00:32:39;;;;;;;9.80;8.20;;;;;;;2.70;70.38;100263.75;689736;28;22480;-58
2021/01/28 00:33:00;;;;;;;9.10;7.95;;;;;;;2.71;70.69;100273.41;689026;28;46530;-61
2021/01/28 00:33:24;;;;;;;9.05;8.18;;;;;;;2.72;70.60;100266.28;689575;28;22339;-63
2021/01/28 00:33:45;;;;;;;9.18;8.30;;;;;;;2.70;70.59;100267.25;687972;28;70331;-60
2021/01/28 00:34:06;;;;;;;9.32;8.40;;;;;;;2.73;70.49;100262.59;688971;28;46300;-59
2021/01/28 00:34:27;;;;;;;8.90;8.00;;;;;;;2.75;70.34;100255.31;689624;28;22423;-61
2021/01/28 00:34:49;;;;;;;9.38;8.43;;;;;;;2.75;70.53;100258.00;689751;28;23480;-58
2021/01/28 00:35:12;;;;;;;9.57;8.57;;;;;;;2.74;70.49;100254.47;689603;28;23464;-62
2021/01/28 00:35:35;;;;;;;9.70;8.40;;;;;;;2.75;70.30;100263.34;687555;28;68410;-60
2021/01/28 00:35:57;;;;;;;9.18;8.20;;;;;;;2.74;70.58;100259.81;687121;28;92324;-59
2021/01/28 00:36:18;;;;;;;9.13;8.15;;;;;;;2.73;70.60;100260.81;689513;28;22378;-61
2021/01/28 00:36:39;;;;;;;9.95;8.60;;;;;;;2.71;70.66;100257.41;688433;28;32509;-60
2021/01/28 00:37:00;;;;;;;10.23;8.70;;;;;;;2.70;70.84;100253.91;690312;28;7045;-60
2021/01/28 00:37:22;;;;;;;9.27;8.10;;;;;;;2.70;70.93;100253.91;689682;28;22388;-61
2021/01/28 00:37:43;;;;;;;9.55;8.23;;;;;;;2.68;71.02;100255.88;688751;28;47553;-59
2021/01/28 00:38:07;;;;;;;9.95;8.43;;;;;;;2.68;71.08;100252.34;689765;28;23449;-58
2021/01/28 00:38:31;;;;;;;9.93;7.97;;;;;;;2.68;71.25;100261.22;687238;28;92375;-60
2021/01/28 00:38:52;;;;;;;10.75;8.52;;;;;;;2.68;71.23;100260.34;687322;28;92150;-62
2021/01/28 00:39:13;;;;;;;9.57;8.32;;;;;;;2.66;71.14;100252.50;689687;28;22453;-60
2021/01/28 00:39:34;;;;;;;10.27;8.98;;;;;;;2.68;71.09;100258.53;689696;28;22385;-59
2021/01/28 00:39:57;;;;;;;10.48;9.00;;;;;;;2.68;71.08;100253.22;688279;28;13255;-62
2021/01/28 00:40:19;;;;;;;9.63;8.60;;;;;;;2.69;71.07;100254.88;686086;28;69392;-62
2021/01/28 00:40:40;;;;;;;9.43;8.52;;;;;;;2.70;71.26;100253.91;687204;28;46511;-60
2021/01/28 00:41:04;;;;;;;10.48;8.77;;;;;;;2.70;71.10;100261.91;688020;28;21663;-60
2021/01/28 00:41:25;;;;;;;11.27;9.32;;;;;;;2.72;70.93;100250.28;685426;28;92117;-61
2021/01/28 00:41:47;;;;;;;11.80;9.15;;;;;;;2.73;70.88;100252.81;688886;28;18672;-61
2021/01/28 00:42:09;;;;;;;10.52;8.88;;;;;;;2.73;71.00;100247.47;688277;28;62971;-58
2021/01/28 00:42:31;;;;;;;11.00;9.05;;;;;;;2.70;70.98;100251.25;688974;28;948;-57
2021/01/28 00:42:52;;;;;;;9.80;8.65;;;;;;;2.73;70.94;100250.13;688282;28;22388;-62
2021/01/28 00:43:14;;;;;;;9.40;8.50;;;;;;;2.71;70.97;100249.41;688339;28;1085;-59
2021/01/28 00:43:36;;;;;;;9.90;8.70;;;;;;;2.72;71.20;100250.28;687094;28;45331;-61
2021/01/28 00:43:57;;;;;;;10.50;8.80;;;;;;;2.72;71.19;100256.44;687493;28;41089;-61
2021/01/28 00:44:19;;;;;;;10.13;9.02;;;;;;;2.73;71.08;100255.47;688355;28;22408;-61
2021/01/28 00:44:40;;;;;;;10.50;8.77;;;;;;;2.72;71.22;100253.78;689528;28;30273;-61
2021/01/28 00:45:02;;;;;;;11.63;8.98;;;;;;;2.71;71.14;100254.75;688945;28;22383;-57
2021/01/28 00:45:27;;;;;;;12.13;8.93;;;;;;;2.70;71.33;100250.41;687970;28;69463;-62
2021/01/28 00:45:50;;;;;;;9.38;8.43;;;;;;;2.68;71.24;100255.88;685757;28;115329;-62
2021/01/28 00:46:11;;;;;;;9.65;8.63;;;;;;;2.69;71.38;100248.72;687806;28;69496;-60
2021/01/28 00:46:34;;;;;;;10.30;8.90;;;;;;;2.68;71.60;100253.22;688000;28;69424;-62
2021/01/28 00:46:55;;;;;;;9.98;8.88;;;;;;;2.69;71.48;100249.53;689709;28;22412;-61
2021/01/28 00:47:17;;;;;;;10.35;8.82;;;;;;;2.68;71.46;100245.22;686851;28;46143;-61
2021/01/28 00:47:38;;;;;;;9.77;8.60;;;;;;;2.68;71.57;100247.00;688130;28;21531;-63
2021/01/28 00:48:01;;;;;;;10.02;8.73;;;;;;;2.67;71.54;100248.84;688068;28;21525;-58
2021/01/28 00:48:24;;;;;;;11.02;8.63;;;;;;;2.68;71.63;100253.22;685483;28;90717;-62
2021/01/28 00:48:50;;;;;;;10.55;9.05;;;;;;;2.70;71.51;100250.41;688886;28;1998;-61
2021/01/28 00:49:11;;;;;;;10.00;8.80;;;;;;;2.72;71.45;100244.94;685792;28;112395;-60
2021/01/28 00:49:32;;;;;;;11.50;9.40;;;;;;;2.74;71.37;100250.97;688984;28;16754;-61
2021/01/28 00:49:54;;;;;;;10.13;8.95;;;;;;;2.74;71.44;100242.97;689496;28;23554;-60
2021/01/28 00:50:15;;;;;;;11.35;8.82;;;;;;;2.74;71.60;100249.13;687976;28;45289;-61
2021/01/28 00:50:37;;;;;;;10.02;8.68;;;;;;;2.73;71.48;100244.81;688635;28;45275;-57
2021/01/28 00:51:00;;;;;;;10.52;9.35;;;;;;;2.73;71.38;100243.94;688771;28;46675;-61
2021/01/28 00:51:21;;;;;;;11.15;9.18;;;;;;;2.72;71.62;100247.59;686786;28;89112;-61
2021/01/28 00:51:43;;;;;;;10.82;9.05;;;;;;;2.72;71.74;100245.78;686152;28;23436;-59
2021/01/28 00:52:04;;;;;;;11.20;8.98;;;;;;;2.71;71.50;100252.06;686794;28;23129;-61
2021/01/28 00:52:26;;;;;;;10.95;8.98;;;;;;;2.72;71.53;100250.28;683964;28;21889;-58
2021/01/28 00:52:47;;;;;;;10.48;9.00;;;;;;;2.74;71.42;100253.63;683380;28;45229;-60
2021/01/28 00:53:09;;;;;;;11.02;9.10;;;;;;;2.76;71.27;100254.31;683311;28;41002;-58
2021/01/28 00:53:31;;;;;;;11.25;9.70;;;;;;;2.79;71.20;100254.91;683859;28;44457;-58
2021/01/28 00:53:52;;;;;;;12.32;9.85;;;;;;;2.78;71.29;100247.88;683489;28;22402;-63
2021/01/28 00:54:13;;;;;;;10.35;8.88;;;;;;;2.77;71.61;100250.69;683692;28;46299;-60
2021/01/28 00:54:35;;;;;;;10.70;9.25;;;;;;;2.76;71.48;100244.53;685612;28;22417;-60
2021/01/28 00:54:56;;;;;;;11.25;9.05;;;;;;;2.77;71.42;100248.84;686427;28;21475;-59
2021/01/28 00:55:19;;;;;;;10.27;9.00;;;;;;;2.79;71.38;100246.06;685961;28;21696;-59
2021/01/28 00:55:46;;;;;;;10.70;9.05;;;;;;;2.79;71.45;100254.06;683547;28;137923;-61
2021/01/28 00:56:15;;;;;;;10.40;8.90;;;;;;;2.78;71.45;100244.38;683751;28;137973;-61
2021/01/28 00:56:41;;;;;;;10.52;9.27;;;;;;;2.77;71.41;100245.34;681563;28;138051;-61
2021/01/28 00:57:02;;;;;;;9.95;8.90;;;;;;;2.76;71.48;100247.19;684575;28;22396;-61
2021/01/28 00:57:24;;;;;;;10.32;9.23;;;;;;;2.77;71.44;100242.69;684403;28;46387;-61
2021/01/28 00:57:45;;;;;;;11.00;9.55;;;;;;;2.77;71.55;100240.03;682828;28;22244;-62
2021/01/28 00:58:07;;;;;;;11.50;9.23;;;;;;;2.74;71.68;100238.47;679695;29;21400;-64
2021/01/28 00:58:28;;;;;;;9.80;8.80;;;;;;;2.74;71.68;100237.63;679159;29;44340;-60
2021/01/28 00:58:54;;;;;;;10.65;9.23;;;;;;;2.73;71.82;100242.13;679884;28;61889;-60
2021/01/28 00:59:19;;;;;;;11.48;9.57;;;;;;;2.73;71.84;100236.81;676989;29;115200;-61
2021/01/28 00:59:41;;;;;;;11.45;9.50;;;;;;;2.72;72.07;100237.78;679339;29;46450;-58
2021/01/28 01:00:09;;;;;;;10.35;8.80;;;;;;;2.72;72.04;100250.28;680762;28;44370;-61
2021/01/28 01:00:34;;;;;;;10.55;9.00;;;;;;;2.75;71.79;100247.34;677326;29;113045;-61
2021/01/28 01:00:57;;;;;;;11.40;9.65;;;;;;;2.75;71.76;100234.81;677558;29;115097;-60
2021/01/28 01:01:19;;;;;;;11.80;9.50;;;;;;;2.76;71.77;100246.31;681032;28;67510;-61
2021/01/28 01:01:40;;;;;;;11.18;9.52;;;;;;;2.75;71.82;100234.81;684111;28;23609;-61
2021/01/28 01:02:02;;;;;;;11.50;9.63;;;;;;;2.74;71.99;100226.97;684927;28;45402;-58
2021/01/28 01:02:23;;;;;;;12.25;9.40;;;;;;;2.75;71.73;100236.66;686372;28;23541;-58
2021/01/28 01:02:45;;;;;;;11.30;9.25;;;;;;;2.75;71.73;100236.66;686349;28;21517;-57
2021/01/28 01:03:14;;;;;;;10.63;9.20;;;;;;;2.73;71.92;100235.94;686466;28;61589;-61
2021/01/28 01:03:35;;;;;;;11.68;9.70;;;;;;;2.72;71.86;100237.78;686682;28;92288;-59
2021/01/28 01:03:56;;;;;;;11.40;10.02;;;;;;;2.72;71.90;100235.09;689281;28;13585;-59
2021/01/28 01:04:17;;;;;;;10.90;9.70;;;;;;;2.72;71.95;100236.94;688726;28;46279;-61
2021/01/28 01:04:39;;;;;;;11.02;9.55;;;;;;;2.73;71.93;100241.28;688092;28;20214;-60
2021/01/28 01:05:00;;;;;;;12.75;9.85;;;;;;;2.70;72.06;100235.25;686651;28;22411;-59
2021/01/28 01:05:24;;;;;;;10.32;9.15;;;;;;;2.71;72.09;100233.41;685541;28;46463;-59
2021/01/28 01:05:46;;;;;;;12.00;9.70;;;;;;;2.70;72.13;100231.75;683118;28;63762;-61
2021/01/28 01:06:08;;;;;;;11.60;9.45;;;;;;;2.70;72.09;100232.56;684768;28;46432;-60
2021/01/28 01:06:29;;;;;;;11.43;10.00;;;;;;;2.69;72.32;100233.53;685681;28;23346;-60
2021/01/28 01:06:56;;;;;;;12.35;9.95;;;;;;;2.68;72.22;100231.88;685381;28;41969;-57
2021/01/28 01:07:18;;;;;;;11.25;9.35;;;;;;;2.65;72.30;100226.81;682174;28;138793;-58
2021/01/28 01:07:40;;;;;;;10.90;9.65;;;;;;;2.66;72.51;100233.81;688945;28;21650;-60
2021/01/28 01:08:04;;;;;;;10.50;9.38;;;;;;;2.67;72.58;100238.19;688211;28;46424;-60
2021/01/28 01:08:28;;;;;;;10.73;9.52;;;;;;;2.68;72.39;100239.03;687049;28;72989;-56
2021/01/28 01:08:55;;;;;;;11.10;9.70;;;;;;;2.68;72.28;100229.22;684843;28;102833;-60
2021/01/28 01:09:25;;;;;;;12.05;9.80;;;;;;;2.70;72.29;100232.56;681124;28;136536;-63
2021/01/28 01:09:48;;;;;;;12.23;9.98;;;;;;;2.70;72.35;100237.06;679970;28;91062;-60
2021/01/28 01:10:14;;;;;;;12.25;10.10;;;;;;;2.69;72.43;100238.88;682906;28;18728;-61
2021/01/28 01:10:39;;;;;;;13.55;9.93;;;;;;;2.69;72.44;100246.03;681280;28;134915;-62
2021/01/28 01:11:03;;;;;;;11.25;9.82;;;;;;;2.71;72.40;100228.06;680109;28;92315;-62
2021/01/28 01:11:25;;;;;;;11.43;9.73;;;;;;;2.70;72.34;100235.25;676997;28;92369;-60
2021/01/28 01:11:49;;;;;;;11.98;9.43;;;;;;;2.69;72.54;100233.53;675182;29;90382;-62
2021/01/28 01:12:10;;;;;;;11.05;9.38;;;;;;;2.71;72.43;100238.75;679681;29;21535;-59
2021/01/28 01:12:32;;;;;;;11.23;9.60;;;;;;;2.72;72.26;100226.28;681056;28;45309;-58
2021/01/28 01:12:54;;;;;;;12.15;9.77;;;;;;;2.69;72.37;100227.38;679845;29;47646;-62
2021/01/28 01:13:18;;;;;;;12.77;10.02;;;;;;;2.72;72.46;100231.59;681494;28;46407;-60
2021/01/28 01:13:41;;;;;;;12.23;10.10;;;;;;;2.74;72.38;100233.13;682245;28;93284;-61
2021/01/28 01:14:08;;;;;;;12.85;10.35;;;;;;;2.74;72.35;100229.63;680289;28;138040;-60
2021/01/28 01:14:29;;;;;;;11.40;9.88;;;;;;;2.73;72.41;100227.94;681248;29;22424;-62
2021/01/28 01:14:50;;;;;;;11.10;9.48;;;;;;;2.74;72.40;100224.28;684130;28;46361;-59
2021/01/28 01:15:13;;;;;;;11.38;9.90;;;;;;;2.74;72.51;100230.47;684550;28;22399;-61
2021/01/28 01:15:35;;;;;;;13.02;10.10;;;;;;;2.77;72.37;100229.34;683487;28;36685;-58
2021/01/28 01:15:57;;;;;;;12.23;10.02;;;;;;;2.76;72.31;100220.53;685931;28;10848;-60
2021/01/28 01:16:19;;;;;;;12.27;10.18;;;;;;;2.76;72.31;100222.31;685528;28;36524;-60
2021/01/28 01:16:47;;;;;;;11.60;9.88;;;;;;;2.78;72.33;100225.72;682294;28;136326;-59
2021/01/28 01:17:14;;;;;;;12.43;9.85;;;;;;;2.77;72.24;100224.84;676008;29;136315;-59
2021/01/28 01:17:38;;;;;;;12.73;10.30;;;;;;;2.78;72.23;100220.38;677874;28;88784;-60
2021/01/28 01:18:04;;;;;;;11.60;9.70;;;;;;;2.78;72.32;100221.22;675693;29;90580;-60
2021/01/28 01:18:30;;;;;;;11.93;9.63;;;;;;;2.78;72.24;100221.22;673500;29;136469;-60
2021/01/28 01:18:51;;;;;;;12.13;9.85;;;;;;;2.76;72.43;100217.84;678454;29;70303;-61
2021/01/28 01:19:15;;;;;;;11.30;9.65;;;;;;;2.75;72.52;100221.50;678208;29;61394;-60
2021/01/28 01:20:03;;;;;;;11.82;10.13;;;;;;;2.75;72.54;100221.50;677560;28;138558;-60
2021/01/28 01:20:33;;;;;;;11.45;9.82;;;;;;;2.73;72.67;100222.59;682555;28;134248;-61
2021/01/28 01:20:55;;;;;;;12.30;10.00;;;;;;;2.72;72.76;100223.59;689930;28;1005;-60
2021/01/28 01:21:21;;;;;;;11.65;9.70;;;;;;;2.74;72.71;100221.63;681910;28;138136;-60
2021/01/28 01:21:57;;;;;;;13.63;9.52;;;;;;;2.76;72.61;100223.19;681157;28;155069;-60
2021/01/28 01:22:19;;;;;;;12.55;9.85;;;;;;;2.76;72.64;100212.53;683876;28;69428;-62
2021/01/28 01:22:42;;;;;;;10.88;9.52;;;;;;;2.76;72.74;100217.84;681810;28;45166;-62
2021/01/28 01:23:03;;;;;;;11.70;9.77;;;;;;;2.76;72.74;100211.66;682229;28;45358;-57
2021/01/28 01:23:34;;;;;;;11.05;9.85;;;;;;;2.74;72.85;100213.63;679600;28;137908;-61
2021/01/28 01:24:00;;;;;;;11.88;9.82;;;;;;;2.75;72.88;100213.50;679580;28;137905;-60
2021/01/28 01:24:21;;;;;;;11.80;9.60;;;;;;;2.75;72.84;100216.16;682717;28;8988;-61
2021/01/28 01:24:43;;;;;;;11.23;9.60;;;;;;;2.75;72.80;100221.50;682524;28;22198;-60
2021/01/28 01:25:05;;;;;;;11.60;9.32;;;;;;;2.76;72.64;100209.84;684389;28;46313;-60
2021/01/28 01:25:27;;;;;;;12.43;9.70;;;;;;;2.75;72.54;100216.16;683316;28;67474;-58
2021/01/28 01:25:48;;;;;;;11.35;9.88;;;;;;;2.79;72.56;100216.72;685750;28;21516;-59
2021/01/28 01:26:10;;;;;;;11.23;9.70;;;;;;;2.80;72.60;100213.06;687417;28;23470;-62
2021/01/28 01:26:31;;;;;;;12.77;9.82;;;;;;;2.78;72.53;100209.72;683606;28;46297;-57
2021/01/28 01:26:52;;;;;;;11.90;9.95;;;;;;;2.78;72.62;100209.72;686424;28;22387;-58
2021/01/28 01:27:14;;;;;;;11.32;9.45;;;;;;;2.76;72.62;100214.31;685638;28;44385;-58
2021/01/28 01:27:35;;;;;;;11.60;9.38;;;;;;;2.78;72.43;100213.22;686173;28;21523;-60
2021/01/28 01:28:09;;;;;;;12.05;9.80;;;;;;;2.76;72.73;100201.00;682813;28;137779;-60
2021/01/28 01:28:48;;;;;;;11.13;9.85;;;;;;;2.76;72.55;100201.00;682207;28;137231;-60
2021/01/28 01:29:20;;;;;;;11.82;10.13;;;;;;;2.78;72.66;100205.22;685151;28;108968;-60
2021/01/28 01:30:03;;;;;;;11.40;9.55;;;;;;;2.78;72.69;100209.72;674635;29;137509;-61
2021/01/28 01:30:34;;;;;;;11.50;9.80;;;;;;;2.78;72.59;100199.88;680888;28;137835;-59
2021/01/28 01:30:56;;;;;;;12.20;9.88;;;;;;;2.77;72.63;100203.53;685146;28;21523;-62
2021/01/28 01:31:18;;;;;;;12.95;9.85;;;;;;;2.78;72.85;100204.38;684457;28;35723;-54
2021/01/28 01:31:39;;;;;;;12.23;9.40;;;;;;;2.78;72.85;100202.53;684564;28;46016;-58
2021/01/28 01:32:01;;;;;;;11.55;9.00;;;;;;;2.78;72.54;100202.53;684967;28;22430;-56
2021/01/28 01:32:27;;;;;;;12.27;9.73;;;;;;;2.78;72.66;100197.22;683543;28;108984;-59
2021/01/28 01:33:11;;;;;;;11.32;9.27;;;;;;;2.78;72.81;100218.56;680878;28;137383;-58
2021/01/28 01:33:37;;;;;;;11.60;9.82;;;;;;;2.80;72.78;100200.56;683120;28;80138;-58
2021/01/28 01:34:02;;;;;;;11.43;9.60;;;;;;;2.81;72.65;100204.94;680778;28;86337;-56
2021/01/28 01:34:30;;;;;;;10.70;9.57;;;;;;;2.82;72.53;100195.97;682761;28;61249;-57
2021/01/28 01:34:56;;;;;;;9.88;8.70;;;;;;;2.82;72.56;100195.09;679664;29;61728;-57
2021/01/28 01:35:22;;;;;;;11.50;8.98;;;;;;;2.81;72.69;100196.09;681429;29;17450;-58
2021/01/28 01:35:44;;;;;;;11.48;9.85;;;;;;;2.81;72.69;100194.28;677217;29;128315;-61
2021/01/28 01:36:06;;;;;;;12.00;9.80;;;;;;;2.80;72.84;100192.56;678031;29;35846;-60
2021/01/28 01:36:33;;;;;;;11.93;9.73;;;;;;;2.80;72.74;100189.06;676768;29;153342;-57
2021/01/28 01:36:57;;;;;;;11.77;9.68;;;;;;;2.81;72.77;100186.28;680426;28;114878;-56
2021/01/28 01:37:19;;;;;;;10.35;9.25;;;;;;;2.81;72.84;100190.78;683116;28;32207;-61
2021/01/28 01:37:45;;;;;;;10.55;9.23;;;;;;;2.78;72.98;100178.53;682170;28;137913;-59
2021/01/28 01:38:08;;;;;;;10.90;9.50;;;;;;;2.78;72.83;100180.38;686455;28;34826;-57
2021/01/28 01:38:30;;;;;;;10.60;9.43;;;;;;;2.78;72.82;100186.53;686258;28;69520;-59
2021/01/28 01:38:51;;;;;;;10.38;9.27;;;;;;;2.78;72.87;100185.72;687325;28;35672;-60
2021/01/28 01:39:19;;;;;;;11.57;9.70;;;;;;;2.78;72.95;100186.53;681335;28;134166;-62
2021/01/28 01:39:43;;;;;;;12.35;9.77;;;;;;;2.79;72.84;100184.72;682733;28;14612;-58
2021/01/28 01:40:12;;;;;;;12.15;9.55;;;;;;;2.82;72.82;100181.75;677218;29;61683;-58
2021/01/28 01:40:39;;;;;;;11.20;9.20;;;;;;;2.80;72.94;100189.06;677036;29;137708;-60
2021/01/28 01:41:01;;;;;;;10.73;9.13;;;;;;;2.82;73.00;100187.09;677982;29;92341;-59
2021/01/28 01:41:28;;;;;;;11.23;9.32;;;;;;;2.80;72.96;100183.75;682629;28;44408;-63
2021/01/28 01:41:49;;;;;;;10.95;8.98;;;;;;;2.79;72.94;100188.25;683241;28;126771;-59
2021/01/28 01:42:18;;;;;;;11.95;9.82;;;;;;;2.79;72.94;100190.03;683278;28;138873;-60
2021/01/28 01:42:40;;;;;;;11.32;9.65;;;;;;;2.78;73.04;100185.72;681401;28;44389;-61
2021/01/28 01:43:04;;;;;;;12.93;10.13;;;;;;;2.77;73.08;100190.19;681993;28;34196;-60
2021/01/28 01:43:28;;;;;;;12.00;9.45;;;;;;;2.76;73.24;100185.00;676609;29;124737;-60
2021/01/28 01:43:57;;;;;;;10.88;9.15;;;;;;;2.74;73.14;100185.13;679753;28;90339;-58
2021/01/28 01:44:19;;;;;;;11.23;8.98;;;;;;;2.76;73.21;100191.19;675931;29;133083;-60
2021/01/28 01:44:45;;;;;;;10.73;9.02;;;;;;;2.77;73.24;100184.84;678519;28;137927;-60
2021/01/28 01:45:28;;;;;;;10.90;9.00;;;;;;;2.80;73.21;100186.41;677776;28;136033;-57
2021/01/28 01:45:54;;;;;;;10.25;9.25;;;;;;;2.82;73.06;100181.75;676366;28;137901;-61
2021/01/28 01:46:19;;;;;;;11.65;9.20;;;;;;;2.83;73.08;100180.78;683316;28;61247;-62
2021/01/28 01:46:40;;;;;;;12.10;9.15;;;;;;;2.83;72.92;100180.78;686321;28;1168;-61
2021/01/28 01:47:20;;;;;;;10.05;8.65;;;;;;;2.81;73.09;100172.09;683335;28;135704;-60
2021/01/28 01:47:46;;;;;;;12.15;9.40;;;;;;;2.81;73.03;100182.78;684066;28;61319;-60
2021/01/28 01:48:15;;;;;;;11.20;9.20;;;;;;;2.82;73.18;100171.97;679742;28;138274;-61
2021/01/28 01:48:39;;;;;;;10.30;9.00;;;;;;;2.80;73.10;100181.91;681245;28;98289;-62
2021/01/28 01:49:02;;;;;;;12.75;10.23;;;;;;;2.82;73.18;100171.97;681098;28;67216;-61
2021/01/28 01:49:24;;;;;;;11.73;9.65;;;;;;;2.83;73.11;100181.63;679944;28;93156;-59
2021/01/28 01:49:48;;;;;;;12.38;9.80;;;;;;;2.84;72.97;100175.31;683423;28;68488;-57